createdAt,value
2019-01-08T00:00:18.699Z,1006.76
2019-01-08T00:01:18.688Z,1006.69
2019-01-08T00:02:18.685Z,1006.72
2019-01-08T00:03:18.680Z,1006.63
2019-01-08T00:04:18.648Z,1006.66
2019-01-08T00:05:18.646Z,1006.66
2019-01-08T00:06:18.654Z,1006.57
2019-01-08T00:07:18.630Z,1006.62
2019-01-08T00:08:18.618Z,1006.59
2019-01-08T00:09:18.628Z,1006.54
2019-01-08T00:10:18.586Z,1006.55
2019-01-08T00:11:18.582Z,1006.50
2019-01-08T00:12:18.591Z,1006.52
2019-01-08T00:13:18.562Z,1006.53
2019-01-08T00:14:18.553Z,1006.47
2019-01-08T00:15:18.595Z,1006.44
2019-01-08T00:16:18.530Z,1006.40
2019-01-08T00:17:18.517Z,1006.37
2019-01-08T00:18:18.520Z,1006.31
2019-01-08T00:19:18.498Z,1006.35
2019-01-08T00:20:18.491Z,1006.32
2019-01-08T00:21:18.511Z,1006.27
2019-01-08T00:22:18.468Z,1006.28
2019-01-08T00:23:18.453Z,1006.27
2019-01-08T00:24:18.448Z,1006.19
2019-01-08T00:25:18.445Z,1006.11
2019-01-08T00:26:18.421Z,1006.15
2019-01-08T00:27:18.438Z,1006.09
2019-01-08T00:28:18.401Z,1006.01
2019-01-08T00:29:18.390Z,1005.99
2019-01-08T00:30:18.392Z,1005.97
2019-01-08T00:31:18.383Z,1005.89
2019-01-08T00:32:18.360Z,1005.96
2019-01-08T00:33:18.352Z,1005.88
2019-01-08T00:34:18.338Z,1005.96
2019-01-08T00:35:18.331Z,1005.94
2019-01-08T00:36:18.315Z,1005.98
2019-01-08T00:37:18.335Z,1005.93
2019-01-08T00:38:18.317Z,1005.89
2019-01-08T00:39:18.288Z,1005.87
2019-01-08T00:40:18.275Z,1005.73
2019-01-08T00:41:18.267Z,1005.67
2019-01-08T00:42:18.260Z,1005.68
2019-01-08T00:43:18.254Z,1005.68
2019-01-08T00:44:18.227Z,1005.66
2019-01-08T00:45:18.224Z,1005.65
2019-01-08T00:46:18.212Z,1005.63
2019-01-08T00:47:18.211Z,1005.53
2019-01-08T00:48:18.191Z,1005.57
2019-01-08T00:49:18.179Z,1005.53
2019-01-08T00:50:18.178Z,1005.54
2019-01-08T00:51:18.196Z,1005.51
2019-01-08T00:52:18.143Z,1005.54
2019-01-08T00:53:18.217Z,1005.43
2019-01-08T00:54:18.133Z,1005.42
2019-01-08T00:55:18.124Z,1005.46
2019-01-08T00:56:18.109Z,1005.43
2019-01-08T00:57:18.096Z,1005.47
2019-01-08T00:58:18.113Z,1005.41
2019-01-08T00:59:18.082Z,1005.35
2019-01-08T01:00:18.078Z,1005.31
2019-01-08T01:01:18.057Z,1005.34
2019-01-08T01:02:18.092Z,1005.31
2019-01-08T01:03:18.033Z,1005.30
2019-01-08T01:04:18.108Z,1005.28
2019-01-08T01:05:18.007Z,1005.18
2019-01-08T01:06:18.007Z,1005.17
2019-01-08T01:07:18.011Z,1005.19
2019-01-08T01:08:18.009Z,1005.11
2019-01-08T01:09:17.977Z,1005.12
2019-01-08T01:10:17.966Z,1005.06
2019-01-08T01:11:17.968Z,1004.97
2019-01-08T01:12:17.945Z,1005.01
2019-01-08T01:13:17.949Z,1004.90
2019-01-08T01:14:17.923Z,1005.01
2019-01-08T01:15:17.920Z,1004.90
2019-01-08T01:16:17.927Z,1004.93
2019-01-08T01:17:17.887Z,1004.85
2019-01-08T01:18:17.886Z,1004.79
2019-01-08T01:19:17.880Z,1004.76
2019-01-08T01:20:17.863Z,1004.76
2019-01-08T01:21:17.849Z,1004.78
2019-01-08T01:22:17.838Z,1004.84
2019-01-08T01:23:17.823Z,1004.79
2019-01-08T01:24:17.815Z,1004.76
2019-01-08T01:25:17.820Z,1004.71
2019-01-08T01:26:17.796Z,1004.64
2019-01-08T01:27:17.793Z,1004.66
2019-01-08T01:28:17.782Z,1004.63
2019-01-08T01:29:17.764Z,1004.53
2019-01-08T01:30:17.755Z,1004.50
2019-01-08T01:31:17.775Z,1004.48
2019-01-08T01:32:17.728Z,1004.46
2019-01-08T01:33:17.724Z,1004.49
2019-01-08T01:34:17.736Z,1004.46
2019-01-08T01:35:17.716Z,1004.32
2019-01-08T01:36:17.697Z,1004.45
2019-01-08T01:37:17.680Z,1004.44
2019-01-08T01:38:17.671Z,1004.27
2019-01-08T01:39:17.741Z,1004.29
2019-01-08T01:40:17.648Z,1004.21
2019-01-08T01:41:17.643Z,1004.16
2019-01-08T01:42:17.649Z,1004.17
2019-01-08T01:43:17.623Z,1004.18
2019-01-08T01:44:17.626Z,1004.14
2019-01-08T01:45:17.591Z,1004.06
2019-01-08T01:46:17.593Z,1004.02
2019-01-08T01:47:17.587Z,1004.03
2019-01-08T01:48:17.609Z,1004.09
2019-01-08T01:49:17.555Z,1003.94
2019-01-08T01:50:17.544Z,1003.98
2019-01-08T01:51:17.531Z,1003.98
2019-01-08T01:52:17.524Z,1004.01
2019-01-08T01:53:17.525Z,1004.07
2019-01-08T01:54:17.520Z,1004.00
2019-01-08T01:55:17.489Z,1003.98
2019-01-08T01:56:17.485Z,1004.00
2019-01-08T01:57:17.479Z,1003.91
2019-01-08T01:58:17.472Z,1003.90
2019-01-08T01:59:17.448Z,1003.81
2019-01-08T02:00:17.439Z,1003.75
2019-01-08T02:01:17.444Z,1003.82
2019-01-08T02:02:17.418Z,1003.73
2019-01-08T02:03:17.406Z,1003.77
2019-01-08T02:04:17.393Z,1003.70
2019-01-08T02:05:17.382Z,1003.71
2019-01-08T02:06:17.371Z,1003.69
2019-01-08T02:07:17.357Z,1003.65
2019-01-08T02:08:17.366Z,1003.61
2019-01-08T02:09:17.357Z,1003.66
2019-01-08T02:10:17.338Z,1003.53
2019-01-08T02:11:17.343Z,1003.50
2019-01-08T02:12:17.349Z,1003.52
2019-01-08T02:13:17.305Z,1003.51
2019-01-08T02:14:17.286Z,1003.46
2019-01-08T02:15:17.284Z,1003.46
2019-01-08T02:16:17.266Z,1003.41
2019-01-08T02:17:17.333Z,1003.41
2019-01-08T02:18:17.257Z,1003.41
2019-01-08T02:19:17.242Z,1003.39
2019-01-08T02:20:17.228Z,1003.39
2019-01-08T02:21:17.223Z,1003.40
2019-01-08T02:22:17.214Z,1003.35
2019-01-08T02:23:17.209Z,1003.38
2019-01-08T02:24:17.182Z,1003.38
2019-01-08T02:25:17.173Z,1003.37
2019-01-08T02:26:17.174Z,1003.39
2019-01-08T02:27:17.162Z,1003.30
2019-01-08T02:28:17.140Z,1003.30
2019-01-08T02:29:17.133Z,1003.27
2019-01-08T02:30:17.120Z,1003.29
2019-01-08T02:31:17.106Z,1003.31
2019-01-08T02:32:17.102Z,1003.25
2019-01-08T02:33:17.093Z,1003.21
2019-01-08T02:34:17.104Z,1003.19
2019-01-08T02:35:17.066Z,1003.07
2019-01-08T02:36:17.057Z,1003.07
2019-01-08T02:37:17.045Z,1003.14
2019-01-08T02:38:17.047Z,1003.13
2019-01-08T02:39:17.030Z,1003.11
2019-01-08T02:40:17.049Z,1003.06
2019-01-08T02:41:17.090Z,1003.05
2019-01-08T02:42:17.001Z,1003.04
2019-01-08T02:43:17.003Z,1002.96
2019-01-08T02:44:17.085Z,1003.00
2019-01-08T02:45:16.966Z,1002.93
2019-01-08T02:46:17.021Z,1002.95
2019-01-08T02:47:16.963Z,1002.89
2019-01-08T02:48:16.937Z,1002.93
2019-01-08T02:49:16.923Z,1002.87
2019-01-08T02:50:16.920Z,1002.88
2019-01-08T02:51:16.905Z,1002.80
2019-01-08T02:52:16.914Z,1002.81
2019-01-08T02:53:16.879Z,1002.82
2019-01-08T02:54:16.881Z,1002.79
2019-01-08T02:55:16.879Z,1002.75
2019-01-08T02:56:16.849Z,1002.71
2019-01-08T02:57:16.841Z,1002.77
2019-01-08T02:58:16.832Z,1002.71
2019-01-08T02:59:24.891Z,1002.62
2019-01-08T03:00:17.815Z,1002.63
2019-01-08T03:01:16.803Z,1002.60
2019-01-08T03:02:16.802Z,1002.56
2019-01-08T03:03:16.786Z,1002.60
2019-01-08T03:04:16.788Z,1002.51
2019-01-08T03:05:16.757Z,1002.50
2019-01-08T03:06:16.746Z,1002.45
2019-01-08T03:07:16.749Z,1002.39
2019-01-08T03:08:16.725Z,1002.43
2019-01-08T03:09:16.715Z,1002.29
2019-01-08T03:10:16.718Z,1002.35
2019-01-08T03:11:16.714Z,1002.26
2019-01-08T03:12:16.687Z,1002.25
2019-01-08T03:13:16.680Z,1002.22
2019-01-08T03:14:16.657Z,1002.33
2019-01-08T03:15:16.691Z,1002.13
2019-01-08T03:16:16.650Z,1002.27
2019-01-08T03:17:16.631Z,1002.10
2019-01-08T03:18:16.670Z,1002.14
2019-01-08T03:19:16.643Z,1002.16
2019-01-08T03:20:16.629Z,1002.07
2019-01-08T03:21:16.622Z,1002.05
2019-01-08T03:22:16.593Z,1002.06
2019-01-08T03:23:16.567Z,1002.02
2019-01-08T03:24:16.551Z,1002.00
2019-01-08T03:25:16.548Z,1001.94
2019-01-08T03:26:16.540Z,1001.93
2019-01-08T03:27:16.528Z,1001.86
2019-01-08T03:28:16.520Z,1001.85
2019-01-08T03:29:16.507Z,1001.80
2019-01-08T03:30:16.496Z,1001.76
2019-01-08T03:31:16.488Z,1001.72
2019-01-08T03:32:16.479Z,1001.78
2019-01-08T03:33:16.462Z,1001.84
2019-01-08T03:34:16.458Z,1001.75
2019-01-08T03:35:16.438Z,1001.78
2019-01-08T03:36:16.443Z,1001.71
2019-01-08T03:37:16.422Z,1001.74
2019-01-08T03:38:16.419Z,1001.70
2019-01-08T03:39:16.397Z,1001.67
2019-01-08T03:40:16.400Z,1001.71
2019-01-08T03:41:16.375Z,1001.63
2019-01-08T03:42:16.382Z,1001.64
2019-01-08T03:43:16.357Z,1001.55
2019-01-08T03:44:16.345Z,1001.57
2019-01-08T03:45:16.349Z,1001.56
2019-01-08T03:46:16.325Z,1001.49
2019-01-08T03:47:16.328Z,1001.53
2019-01-08T03:48:16.312Z,1001.48
2019-01-08T03:49:16.302Z,1001.48
2019-01-08T03:50:16.300Z,1001.45
2019-01-08T03:51:16.286Z,1001.39
2019-01-08T03:52:16.266Z,1001.38
2019-01-08T03:53:16.254Z,1001.38
2019-01-08T03:54:16.257Z,1001.39
2019-01-08T03:55:16.249Z,1001.34
2019-01-08T03:56:16.224Z,1001.28
2019-01-08T03:57:16.229Z,1001.30
2019-01-08T03:58:16.207Z,1001.24
2019-01-08T03:59:16.186Z,1001.23
2019-01-08T04:00:16.180Z,1001.20
2019-01-08T04:01:16.176Z,1001.18
2019-01-08T04:02:16.160Z,1001.16
2019-01-08T04:03:16.151Z,1001.09
2019-01-08T04:04:16.137Z,1001.08
2019-01-08T04:05:16.130Z,1001.11
2019-01-08T04:06:16.118Z,1001.08
2019-01-08T04:07:16.108Z,1001.05
2019-01-08T04:08:16.103Z,1001.04
2019-01-08T04:09:16.087Z,1000.98
2019-01-08T04:10:16.081Z,1001.00
2019-01-08T04:11:16.066Z,1000.98
2019-01-08T04:12:16.055Z,1000.92
2019-01-08T04:13:16.054Z,1000.98
2019-01-08T04:14:16.066Z,1000.91
2019-01-08T04:15:16.026Z,1000.88
2019-01-08T04:16:16.018Z,1000.88
2019-01-08T04:17:16.013Z,1000.82
2019-01-08T04:18:15.995Z,1000.78
2019-01-08T04:19:15.990Z,1000.76
2019-01-08T04:20:15.978Z,1000.77
2019-01-08T04:21:15.957Z,1000.75
2019-01-08T04:22:15.955Z,1000.80
2019-01-08T04:23:15.943Z,1000.76
2019-01-08T04:24:15.933Z,1000.75
2019-01-08T04:25:15.927Z,1000.76
2019-01-08T04:26:15.905Z,1000.70
2019-01-08T04:27:16.019Z,1000.81
2019-01-08T04:28:15.949Z,1000.80
2019-01-08T04:29:15.875Z,1000.78
2019-01-08T04:30:15.878Z,1000.76
2019-01-08T04:31:15.868Z,1000.74
2019-01-08T04:32:15.845Z,1000.71
2019-01-08T04:33:15.835Z,1000.73
2019-01-08T04:34:15.830Z,1000.65
2019-01-08T04:35:15.822Z,1000.65
2019-01-08T04:36:15.815Z,1000.60
2019-01-08T04:37:15.809Z,1000.62
2019-01-08T04:38:15.784Z,1000.57
2019-01-08T04:39:15.776Z,1000.55
2019-01-08T04:40:15.790Z,1000.45
2019-01-08T04:41:15.753Z,1000.46
2019-01-08T04:42:15.757Z,1000.44
2019-01-08T04:43:15.734Z,1000.38
2019-01-08T04:44:15.716Z,1000.40
2019-01-08T04:45:15.708Z,1000.28
2019-01-08T04:46:15.715Z,1000.32
2019-01-08T04:47:15.696Z,1000.28
2019-01-08T04:48:15.718Z,1000.21
2019-01-08T04:49:15.687Z,1000.24
2019-01-08T04:50:15.664Z,1000.18
2019-01-08T04:51:15.662Z,1000.15
2019-01-08T04:52:15.677Z,1000.08
2019-01-08T04:53:15.631Z,1000.05
2019-01-08T04:54:15.623Z,999.87
2019-01-08T04:55:15.618Z,999.91
2019-01-08T04:56:15.596Z,999.88
2019-01-08T04:57:15.588Z,999.81
2019-01-08T04:58:15.579Z,999.86
2019-01-08T04:59:15.558Z,999.80
2019-01-08T05:00:15.558Z,999.80
2019-01-08T05:01:15.543Z,999.72
2019-01-08T05:02:15.530Z,999.73
2019-01-08T05:03:15.518Z,999.67
2019-01-08T05:04:15.517Z,999.64
2019-01-08T05:05:15.502Z,999.63
2019-01-08T05:06:15.486Z,999.68
2019-01-08T05:07:15.489Z,999.61
2019-01-08T05:08:15.463Z,999.55
2019-01-08T05:09:15.478Z,999.47
2019-01-08T05:10:15.452Z,999.48
2019-01-08T05:11:15.472Z,999.36
2019-01-08T05:12:15.428Z,999.39
2019-01-08T05:13:15.427Z,999.37
2019-01-08T05:14:15.405Z,999.33
2019-01-08T05:15:15.401Z,999.29
2019-01-08T05:16:15.387Z,999.30
2019-01-08T05:17:15.413Z,999.32
2019-01-08T05:18:15.383Z,999.34
2019-01-08T05:19:15.363Z,999.29
2019-01-08T05:20:15.339Z,999.17
2019-01-08T05:21:15.332Z,999.17
2019-01-08T05:22:15.323Z,999.17
2019-01-08T05:23:15.321Z,999.22
2019-01-08T05:24:15.310Z,999.26
2019-01-08T05:25:15.293Z,999.21
2019-01-08T05:26:15.277Z,999.21
2019-01-08T05:27:15.284Z,999.20
2019-01-08T05:28:15.259Z,999.15
2019-01-08T05:29:15.258Z,999.12
2019-01-08T05:30:15.249Z,999.18
2019-01-08T05:31:15.238Z,999.11
2019-01-08T05:32:15.215Z,999.10
2019-01-08T05:33:15.212Z,999.14
2019-01-08T05:34:15.195Z,999.13
2019-01-08T05:35:15.180Z,999.12
2019-01-08T05:36:15.185Z,999.11
2019-01-08T05:37:15.164Z,999.14
2019-01-08T05:38:15.157Z,998.99
2019-01-08T05:39:15.146Z,998.98
2019-01-08T05:40:15.131Z,998.92
2019-01-08T05:41:15.745Z,998.95
2019-01-08T05:42:15.124Z,998.95
2019-01-08T05:43:15.150Z,998.88
2019-01-08T05:44:15.096Z,998.89
2019-01-08T05:45:15.155Z,998.84
2019-01-08T05:46:15.079Z,998.81
2019-01-08T05:47:16.468Z,998.77
2019-01-08T05:48:15.052Z,998.77
2019-01-08T05:49:15.039Z,998.70
2019-01-08T05:50:15.030Z,998.72
2019-01-08T05:51:15.018Z,998.64
2019-01-08T05:52:15.006Z,998.66
2019-01-08T05:53:15.003Z,998.68
2019-01-08T05:54:14.988Z,998.63
2019-01-08T05:55:14.976Z,998.68
2019-01-08T05:56:14.990Z,998.67
2019-01-08T05:57:14.952Z,998.65
2019-01-08T05:58:14.947Z,998.70
2019-01-08T05:59:14.943Z,998.65
2019-01-08T06:00:16.554Z,998.65
2019-01-08T06:01:14.934Z,998.62
2019-01-08T06:02:14.923Z,998.62
2019-01-08T06:03:14.893Z,998.56
2019-01-08T06:04:14.892Z,998.56
2019-01-08T06:05:14.882Z,998.55
2019-01-08T06:06:14.857Z,998.51
2019-01-08T06:07:14.847Z,998.44
2019-01-08T06:08:14.852Z,998.42
2019-01-08T06:09:14.845Z,998.31
2019-01-08T06:10:14.826Z,998.46
2019-01-08T06:11:14.818Z,998.36
2019-01-08T06:12:14.795Z,998.34
2019-01-08T06:13:14.784Z,998.34
2019-01-08T06:14:14.775Z,998.32
2019-01-08T06:15:14.791Z,998.27
2019-01-08T06:16:14.757Z,998.31
2019-01-08T06:17:14.763Z,998.32
2019-01-08T06:18:14.774Z,998.26
2019-01-08T06:19:14.722Z,998.31
2019-01-08T06:20:14.709Z,998.28
2019-01-08T06:21:14.707Z,998.28
2019-01-08T06:22:14.697Z,998.30
2019-01-08T06:23:14.687Z,998.32
2019-01-08T06:24:14.677Z,998.23
2019-01-08T06:25:14.675Z,998.15
2019-01-08T06:26:14.648Z,998.22
2019-01-08T06:27:14.649Z,998.19
2019-01-08T06:28:14.635Z,998.10
2019-01-08T06:29:14.620Z,998.11
2019-01-08T06:30:14.606Z,998.03
2019-01-08T06:31:14.595Z,998.03
2019-01-08T06:32:14.596Z,997.97
2019-01-08T06:33:14.586Z,997.90
2019-01-08T06:34:14.572Z,997.92
2019-01-08T06:35:14.560Z,997.86
2019-01-08T06:36:14.553Z,997.85
2019-01-08T06:37:14.541Z,997.85
2019-01-08T06:38:15.389Z,997.79
2019-01-08T06:39:14.514Z,997.79
2019-01-08T06:40:14.499Z,997.81
2019-01-08T06:41:14.487Z,997.66
2019-01-08T06:42:14.480Z,997.73
2019-01-08T06:43:14.477Z,997.78
2019-01-08T06:44:14.471Z,997.65
2019-01-08T06:45:14.455Z,997.64
2019-01-08T06:46:14.436Z,997.56
2019-01-08T06:47:14.426Z,997.53
2019-01-08T06:48:14.418Z,997.51
2019-01-08T06:49:14.408Z,997.58
2019-01-08T06:50:14.403Z,997.58
2019-01-08T06:51:14.390Z,997.46
2019-01-08T06:52:14.376Z,997.58
2019-01-08T06:53:14.363Z,997.49
2019-01-08T06:54:14.358Z,997.48
2019-01-08T06:55:14.349Z,997.46
2019-01-08T06:56:14.688Z,997.45
2019-01-08T06:57:14.330Z,997.39
2019-01-08T06:58:14.313Z,997.39
2019-01-08T06:59:14.302Z,997.35
2019-01-08T07:00:14.299Z,997.33
2019-01-08T07:01:14.277Z,997.31
2019-01-08T07:02:14.270Z,997.29
2019-01-08T07:03:14.274Z,997.29
2019-01-08T07:04:14.251Z,997.26
2019-01-08T07:05:14.245Z,997.26
2019-01-08T07:06:14.231Z,997.28
2019-01-08T07:07:14.215Z,997.29
2019-01-08T07:08:14.210Z,997.18
2019-01-08T07:09:14.193Z,997.23
2019-01-08T07:10:14.206Z,997.22
2019-01-08T07:11:14.176Z,997.17
2019-01-08T07:12:14.179Z,997.15
2019-01-08T07:13:14.171Z,997.15
2019-01-08T07:14:14.159Z,997.16
2019-01-08T07:15:14.132Z,997.10
2019-01-08T07:16:14.135Z,997.14
2019-01-08T07:17:14.124Z,997.02
2019-01-08T07:18:14.097Z,997.05
2019-01-08T07:19:14.099Z,997.01
2019-01-08T07:20:14.094Z,997.11
2019-01-08T07:21:14.070Z,997.00
2019-01-08T07:22:14.060Z,997.07
2019-01-08T07:23:14.051Z,996.92
2019-01-08T07:24:14.038Z,996.93
2019-01-08T07:25:14.036Z,996.87
2019-01-08T07:26:14.037Z,996.83
2019-01-08T07:27:16.513Z,996.87
2019-01-08T07:28:14.001Z,996.78
2019-01-08T07:29:13.995Z,996.78
2019-01-08T07:30:13.972Z,996.76
2019-01-08T07:31:13.967Z,996.72
2019-01-08T07:32:13.992Z,996.74
2019-01-08T07:33:13.942Z,996.79
2019-01-08T07:34:13.933Z,996.72
2019-01-08T07:35:13.928Z,996.58
2019-01-08T07:36:13.917Z,996.67
2019-01-08T07:37:13.915Z,996.65
2019-01-08T07:38:13.899Z,996.64
2019-01-08T07:39:13.916Z,996.57
2019-01-08T07:40:13.873Z,996.59
2019-01-08T07:41:13.861Z,996.62
2019-01-08T07:42:13.852Z,996.60
2019-01-08T07:43:13.854Z,996.49
2019-01-08T07:44:13.846Z,996.38
2019-01-08T07:45:13.826Z,996.38
2019-01-08T07:46:13.807Z,996.28
2019-01-08T07:47:13.799Z,996.31
2019-01-08T07:48:13.789Z,996.28
2019-01-08T07:49:13.783Z,996.29
2019-01-08T07:50:13.767Z,996.29
2019-01-08T07:51:13.763Z,996.18
2019-01-08T07:52:13.786Z,996.19
2019-01-08T07:53:13.736Z,996.13
2019-01-08T07:54:13.731Z,996.07
2019-01-08T07:55:13.719Z,996.12
2019-01-08T07:56:13.705Z,995.99
2019-01-08T07:57:13.698Z,996.00
2019-01-08T07:58:13.682Z,995.91
2019-01-08T07:59:13.669Z,995.95
2019-01-08T08:00:13.666Z,995.93
2019-01-08T08:01:13.656Z,995.97
2019-01-08T08:02:13.645Z,996.04
2019-01-08T08:03:13.646Z,995.96
2019-01-08T08:04:13.631Z,995.98
2019-01-08T08:05:13.613Z,995.95
2019-01-08T08:06:13.603Z,995.98
2019-01-08T08:07:13.594Z,995.95
2019-01-08T08:08:13.585Z,995.89
2019-01-08T08:09:13.566Z,995.86
2019-01-08T08:10:13.565Z,995.77
2019-01-08T08:11:13.542Z,995.80
2019-01-08T08:12:13.544Z,995.78
2019-01-08T08:13:13.533Z,995.71
2019-01-08T08:14:13.519Z,995.60
2019-01-08T08:15:13.510Z,995.63
2019-01-08T08:16:13.500Z,995.69
2019-01-08T08:17:13.486Z,995.64
2019-01-08T08:18:13.476Z,995.63
2019-01-08T08:19:13.458Z,995.63
2019-01-08T08:20:13.520Z,995.66
2019-01-08T08:21:13.454Z,995.53
2019-01-08T08:22:13.451Z,995.65
2019-01-08T08:23:14.389Z,995.57
2019-01-08T08:24:13.413Z,995.63
2019-01-08T08:25:13.438Z,995.57
2019-01-08T08:26:13.399Z,995.55
2019-01-08T08:27:13.385Z,995.55
2019-01-08T08:28:13.373Z,995.56
2019-01-08T08:29:13.366Z,995.53
2019-01-08T08:30:13.357Z,995.50
2019-01-08T08:31:13.359Z,995.47
2019-01-08T08:32:13.325Z,995.49
2019-01-08T08:33:13.326Z,995.41
2019-01-08T08:34:13.298Z,995.43
2019-01-08T08:35:13.298Z,995.33
2019-01-08T08:36:13.292Z,995.36
2019-01-08T08:37:13.270Z,995.29
2019-01-08T08:38:13.271Z,995.25
2019-01-08T08:39:13.257Z,995.25
2019-01-08T08:40:13.246Z,995.20
2019-01-08T08:41:13.243Z,995.25
2019-01-08T08:42:13.248Z,995.21
2019-01-08T08:43:13.210Z,995.20
2019-01-08T08:44:13.196Z,995.11
2019-01-08T08:45:13.865Z,995.15
2019-01-08T08:46:13.181Z,995.12
2019-01-08T08:47:13.163Z,995.06
2019-01-08T08:48:13.166Z,994.98
2019-01-08T08:49:13.147Z,995.03
2019-01-08T08:50:13.165Z,994.93
2019-01-08T08:51:13.159Z,994.87
2019-01-08T08:52:13.111Z,994.87
2019-01-08T08:53:13.118Z,994.83
2019-01-08T08:54:13.106Z,994.88
2019-01-08T08:55:13.081Z,994.85
2019-01-08T08:56:13.069Z,994.81
2019-01-08T08:57:13.061Z,994.78
2019-01-08T08:58:13.055Z,994.78
2019-01-08T08:59:13.044Z,994.74
2019-01-08T09:00:13.073Z,994.76
2019-01-08T09:01:13.040Z,994.68
2019-01-08T09:02:13.125Z,994.71
2019-01-08T09:03:12.997Z,994.71
2019-01-08T09:04:12.996Z,994.67
2019-01-08T09:05:12.971Z,994.66
2019-01-08T09:06:12.971Z,994.55
2019-01-08T09:07:12.954Z,994.62
2019-01-08T09:08:12.948Z,994.57
2019-01-08T09:09:12.936Z,994.58
2019-01-08T09:10:12.924Z,994.49
2019-01-08T09:11:12.927Z,994.51
2019-01-08T09:12:12.902Z,994.43
2019-01-08T09:13:12.892Z,994.43
2019-01-08T09:14:12.896Z,994.56
2019-01-08T09:15:12.882Z,994.55
2019-01-08T09:16:12.857Z,994.40
2019-01-08T09:17:12.908Z,994.37
2019-01-08T09:18:12.849Z,994.46
2019-01-08T09:19:12.834Z,994.37
2019-01-08T09:20:12.813Z,994.42
2019-01-08T09:21:12.819Z,994.40
2019-01-08T09:22:12.855Z,994.30
2019-01-08T09:23:12.794Z,994.29
2019-01-08T09:24:12.785Z,994.27
2019-01-08T09:25:12.771Z,994.21
2019-01-08T09:26:12.759Z,994.22
2019-01-08T09:27:12.747Z,994.23
2019-01-08T09:28:12.744Z,994.22
2019-01-08T09:29:12.800Z,994.26
2019-01-08T09:30:12.893Z,994.21
2019-01-08T09:31:15.553Z,994.15
2019-01-08T09:32:12.707Z,994.13
2019-01-08T09:33:12.688Z,994.07
2019-01-08T09:34:12.682Z,994.01
2019-01-08T09:35:12.667Z,993.96
2019-01-08T09:36:12.658Z,993.95
2019-01-08T09:37:12.664Z,993.90
2019-01-08T09:38:12.635Z,993.90
2019-01-08T09:39:12.650Z,993.89
2019-01-08T09:40:12.613Z,993.79
2019-01-08T09:41:12.629Z,993.85
2019-01-08T09:42:12.596Z,993.81
2019-01-08T09:43:12.613Z,993.79
2019-01-08T09:44:12.623Z,993.82
2019-01-08T09:45:12.600Z,993.81
2019-01-08T09:46:12.629Z,993.85
2019-01-08T09:47:12.611Z,993.72
2019-01-08T09:48:12.617Z,993.59
2019-01-08T09:49:12.648Z,993.65
2019-01-08T09:50:12.534Z,993.65
2019-01-08T09:51:12.511Z,993.69
2019-01-08T09:52:12.531Z,993.58
2019-01-08T09:53:12.487Z,993.62
2019-01-08T09:54:12.483Z,993.55
2019-01-08T09:55:12.477Z,993.55
2019-01-08T09:56:12.465Z,993.59
2019-01-08T09:57:12.532Z,993.57
2019-01-08T09:58:12.660Z,993.56
2019-01-08T09:59:12.426Z,993.52
2019-01-08T10:00:12.616Z,993.51
2019-01-08T10:01:12.489Z,993.55
2019-01-08T10:02:12.426Z,993.49
2019-01-08T10:03:12.411Z,993.48
2019-01-08T10:04:12.421Z,993.41
2019-01-08T10:05:12.422Z,993.31
2019-01-08T10:06:12.445Z,993.38
2019-01-08T10:07:12.364Z,993.38
2019-01-08T10:08:12.429Z,993.36
2019-01-08T10:09:12.390Z,993.32
2019-01-08T10:10:12.367Z,993.22
2019-01-08T10:11:12.302Z,993.22
2019-01-08T10:12:12.346Z,993.22
2019-01-08T10:13:12.302Z,993.21
2019-01-08T10:14:12.320Z,993.22
2019-01-08T10:15:12.272Z,993.17
2019-01-08T10:16:12.250Z,993.15
2019-01-08T10:17:12.239Z,993.10
2019-01-08T10:18:12.243Z,993.02
2019-01-08T10:19:12.223Z,993.00
2019-01-08T10:20:12.208Z,993.08
2019-01-08T10:21:12.232Z,992.96
2019-01-08T10:22:12.192Z,992.98
2019-01-08T10:23:12.263Z,993.01
2019-01-08T10:24:12.164Z,992.86
2019-01-08T10:25:12.183Z,992.84
2019-01-08T10:26:12.145Z,992.79
2019-01-08T10:27:12.132Z,992.84
2019-01-08T10:28:12.121Z,992.86
2019-01-08T10:29:12.110Z,992.90
2019-01-08T10:30:12.132Z,992.80
2019-01-08T10:31:12.097Z,992.83
2019-01-08T10:32:12.073Z,992.75
2019-01-08T10:33:12.104Z,992.73
2019-01-08T10:34:12.072Z,992.78
2019-01-08T10:35:12.049Z,992.68
2019-01-08T10:36:12.045Z,992.72
2019-01-08T10:37:12.041Z,992.74
2019-01-08T10:38:12.020Z,992.68
2019-01-08T10:39:12.021Z,992.66
2019-01-08T10:40:12.010Z,992.64
2019-01-08T10:41:11.998Z,992.59
2019-01-08T10:42:12.008Z,992.65
2019-01-08T10:43:12.014Z,992.60
2019-01-08T10:44:11.984Z,992.54
2019-01-08T10:45:11.950Z,992.58
2019-01-08T10:46:11.940Z,992.60
2019-01-08T10:47:11.927Z,992.59
2019-01-08T10:48:11.915Z,992.66
2019-01-08T10:49:11.952Z,992.62
2019-01-08T10:50:11.969Z,992.50
2019-01-08T10:51:11.948Z,992.50
2019-01-08T10:52:11.868Z,992.42
2019-01-08T10:53:11.864Z,992.43
2019-01-08T10:54:11.856Z,992.33
2019-01-08T10:55:11.861Z,992.32
2019-01-08T10:56:11.884Z,992.30
2019-01-08T10:57:11.819Z,992.30
2019-01-08T10:58:11.922Z,992.29
2019-01-08T10:59:11.795Z,992.25
2019-01-08T11:00:11.791Z,992.27
2019-01-08T11:01:11.774Z,992.21
2019-01-08T11:02:11.851Z,992.28
2019-01-08T11:03:11.787Z,992.20
2019-01-08T11:04:11.748Z,992.22
2019-01-08T11:05:11.750Z,992.21
2019-01-08T11:06:11.722Z,992.21
2019-01-08T11:07:11.723Z,992.20
2019-01-08T11:08:11.719Z,992.15
2019-01-08T11:09:11.725Z,992.10
2019-01-08T11:10:12.467Z,992.16
2019-01-08T11:11:11.685Z,992.17
2019-01-08T11:12:11.673Z,992.21
2019-01-08T11:13:11.675Z,992.08
2019-01-08T11:14:11.656Z,992.01
2019-01-08T11:15:11.638Z,992.02
2019-01-08T11:16:11.723Z,991.97
2019-01-08T11:17:11.611Z,991.98
2019-01-08T11:18:11.601Z,992.01
2019-01-08T11:19:11.593Z,991.89
2019-01-08T11:20:11.579Z,991.90
2019-01-08T11:21:11.609Z,991.92
2019-01-08T11:22:11.558Z,991.92
2019-01-08T11:23:11.556Z,991.97
2019-01-08T11:24:11.565Z,992.02
2019-01-08T11:25:11.549Z,991.87
2019-01-08T11:26:11.530Z,991.77
2019-01-08T11:27:11.515Z,991.89
2019-01-08T11:28:11.501Z,991.85
2019-01-08T11:29:11.473Z,991.83
2019-01-08T11:30:11.488Z,991.84
2019-01-08T11:31:11.472Z,991.74
2019-01-08T11:32:11.446Z,991.80
2019-01-08T11:33:11.463Z,991.77
2019-01-08T11:34:11.540Z,991.91
2019-01-08T11:35:11.438Z,991.77
2019-01-08T11:36:11.413Z,991.88
2019-01-08T11:37:11.407Z,991.79
2019-01-08T11:38:11.396Z,991.70
2019-01-08T11:39:11.404Z,991.77
2019-01-08T11:40:11.374Z,991.66
2019-01-08T11:41:11.389Z,991.78
2019-01-08T11:42:11.360Z,991.70
2019-01-08T11:43:11.343Z,991.63
2019-01-08T11:44:11.333Z,991.66
2019-01-08T11:45:11.331Z,991.63
2019-01-08T11:46:11.309Z,991.58
2019-01-08T11:47:11.325Z,991.55
2019-01-08T11:48:11.288Z,991.56
2019-01-08T11:49:11.324Z,991.54
2019-01-08T11:50:11.269Z,991.40
2019-01-08T11:51:11.296Z,991.49
2019-01-08T11:52:11.285Z,991.42
2019-01-08T11:53:11.266Z,991.64
2019-01-08T11:54:11.369Z,991.65
2019-01-08T11:55:11.221Z,991.63
2019-01-08T11:56:11.195Z,991.59
2019-01-08T11:57:11.201Z,991.57
2019-01-08T11:58:11.193Z,991.56
2019-01-08T11:59:11.161Z,991.56
2019-01-08T12:00:11.162Z,991.56
2019-01-08T12:01:11.158Z,991.54
2019-01-08T12:02:11.175Z,991.51
2019-01-08T12:03:11.206Z,991.53
2019-01-08T12:04:11.150Z,991.41
2019-01-08T12:05:11.118Z,991.51
2019-01-08T12:06:11.124Z,991.41
2019-01-08T12:07:11.178Z,991.41
2019-01-08T12:08:11.071Z,991.31
2019-01-08T12:09:11.062Z,991.37
2019-01-08T12:10:11.070Z,991.56
2019-01-08T12:11:11.181Z,991.44
2019-01-08T12:12:11.169Z,991.47
2019-01-08T12:13:11.054Z,991.45
2019-01-08T12:14:11.017Z,991.46
2019-01-08T12:15:11.002Z,991.32
2019-01-08T12:16:10.992Z,991.39
2019-01-08T12:17:10.981Z,991.40
2019-01-08T12:18:10.963Z,991.26
2019-01-08T12:19:10.960Z,991.31